Time;durP1;ratioP1;P1;durP2;ratioP2;P2;SDS_P1;SDS_P2;PMS_P1;PMS_P2;Temp;Humidity;BMP_temperature;BMP_pressure;BME280_temperature;BME280_humidity;BME280_pressure;Samples;Min_cycle;Max_cycle;Signal;HPM_P1;HPM_P2
2023/01/16 00:01:39;;;;;;;11.95;4.20;;;3.80;99.90;;;;;;4995672;28;20045;-70
2023/01/16 00:04:04;;;;;;;8.82;4.20;;;3.80;99.90;;;;;;4995520;28;20038;-71
2023/01/16 00:06:30;;;;;;;12.57;3.97;;;3.70;99.90;;;;;;4996003;28;20374;-71
2023/01/16 00:08:56;;;;;;;11.68;3.95;;;3.90;99.90;;;;;;4995797;28;20042;-70
2023/01/16 00:11:21;;;;;;;11.85;3.90;;;3.80;99.90;;;;;;4999144;28;20550;-70
2023/01/16 00:13:47;;;;;;;9.63;3.90;;;3.80;99.90;;;;;;5012174;28;20054;-70
2023/01/16 00:16:13;;;;;;;11.60;4.15;;;3.80;99.90;;;;;;5005470;28;20034;-70
2023/01/16 00:22:19;;;;;;;11.35;3.97;;;3.70;99.90;;;;;;5012882;28;20100;-70
2023/01/16 00:24:45;;;;;;;10.43;3.95;;;3.70;99.90;;;;;;5010329;28;20045;-71
2023/01/16 00:27:11;;;;;;;9.75;3.90;;;3.80;99.90;;;;;;4995850;28;20052;-71
2023/01/16 00:29:36;;;;;;;14.60;4.18;;;3.80;99.90;;;;;;4995762;28;20056;-69
2023/01/16 00:32:02;;;;;;;10.80;4.32;;;3.80;99.90;;;;;;4995646;28;20048;-71
2023/01/16 00:34:27;;;;;;;15.60;4.50;;;3.90;99.90;;;;;;4996027;28;20048;-70
2023/01/16 00:36:53;;;;;;;11.88;4.22;;;3.90;99.90;;;;;;4995502;28;20042;-71
2023/01/16 00:39:19;;;;;;;14.23;4.85;;;3.90;99.90;;;;;;4995588;28;20180;-70
2023/01/16 00:45:25;;;;;;;12.50;4.65;;;3.90;99.90;;;;;;5013256;28;20080;-70
2023/01/16 00:47:51;;;;;;;12.95;4.70;;;4.10;99.90;;;;;;4979271;28;20447;-71
2023/01/16 00:50:17;;;;;;;13.65;4.60;;;4.00;99.90;;;;;;5011896;28;20053;-71
2023/01/16 00:52:42;;;;;;;13.90;4.32;;;4.10;99.90;;;;;;4995412;28;20161;-71
2023/01/16 00:55:08;;;;;;;12.40;4.53;;;4.00;99.90;;;;;;4995808;28;20081;-70
2023/01/16 01:01:15;;;;;;;19.05;4.57;;;4.00;99.90;;;;;;5016824;28;20032;-71
2023/01/16 01:03:40;;;;;;;17.02;4.40;;;4.20;99.90;;;;;;4999302;28;20473;-70
2023/01/16 01:06:11;;;;;;;13.52;4.40;;;4.20;99.90;;;;;;4999258;28;20137;-71
2023/01/16 01:08:37;;;;;;;22.50;4.93;;;4.20;99.90;;;;;;4983700;28;20050;-70
2023/01/16 01:11:10;;;;;;;16.10;5.13;;;4.20;99.90;;;;;;4999192;28;20034;-70
2023/01/16 01:13:37;;;;;;;12.32;4.25;;;4.20;99.90;;;;;;4999080;28;20055;-69
2023/01/16 01:16:03;;;;;;;16.77;4.22;;;4.20;99.90;;;;;;5016211;28;20041;-69
2023/01/16 01:18:28;;;;;;;12.98;4.78;;;4.20;99.90;;;;;;5012841;28;20037;-70
2023/01/16 01:20:54;;;;;;;15.38;4.47;;;4.10;99.90;;;;;;4998512;28;20473;-69
2023/01/16 01:23:20;;;;;;;11.40;4.07;;;3.90;99.90;;;;;;4998975;28;20038;-71
2023/01/16 01:25:45;;;;;;;14.20;4.40;;;4.00;99.90;;;;;;4998585;28;20084;-71
2023/01/16 01:28:11;;;;;;;13.02;4.35;;;4.00;99.90;;;;;;4998661;28;20448;-70
2023/01/16 01:30:37;;;;;;;15.60;4.60;;;4.20;99.90;;;;;;4998618;28;20054;-70
2023/01/16 01:33:03;;;;;;;15.70;4.15;;;4.20;99.90;;;;;;4995510;28;20105;-70
2023/01/16 01:35:28;;;;;;;12.27;4.15;;;4.20;99.90;;;;;;4995272;28;20038;-71
2023/01/16 01:37:54;;;;;;;15.45;4.50;;;4.00;99.90;;;;;;4995110;28;20133;-71
2023/01/16 01:40:20;;;;;;;16.30;4.55;;;4.10;99.90;;;;;;4998643;28;20045;-71
2023/01/16 01:42:51;;;;;;;15.38;4.10;;;4.20;99.90;;;;;;4998303;28;20046;-70
2023/01/16 01:45:20;;;;;;;11.73;3.97;;;4.10;99.90;;;;;;4998411;28;20173;-70
2023/01/16 01:47:56;;;;;;;11.07;4.22;;;4.10;99.90;;;;;;4997998;28;20405;-69
2023/01/16 01:50:57;;;;;;;13.95;3.90;;;4.10;99.90;;;;;;4997164;28;20045;-70
2023/01/16 01:53:37;;;;;;;13.40;4.65;;;4.00;99.90;;;;;;4970984;28;20054;-70
2023/01/16 01:56:18;;;;;;;14.88;4.53;;;4.00;99.90;;;;;;5000415;28;20049;-69
2023/01/16 01:58:49;;;;;;;10.65;4.03;;;3.80;99.90;;;;;;5015189;28;20454;-72
2023/01/16 02:01:15;;;;;;;13.50;4.40;;;3.90;99.90;;;;;;4997490;28;20044;-71
2023/01/16 02:03:47;;;;;;;13.00;4.20;;;4.00;99.90;;;;;;4997447;28;20120;-71
2023/01/16 02:06:19;;;;;;;14.32;4.68;;;3.90;99.90;;;;;;5004084;28;20044;-71
2023/01/16 02:08:47;;;;;;;18.58;4.50;;;4.00;99.90;;;;;;5014090;28;20404;-71
2023/01/16 02:11:25;;;;;;;15.45;4.40;;;3.80;99.90;;;;;;4998786;28;20504;-71
2023/01/16 02:13:56;;;;;;;15.32;4.53;;;3.80;99.90;;;;;;5018840;28;20551;-71
2023/01/16 02:19:34;;;;;;;11.70;4.75;;;3.90;99.90;;;;;;4995524;28;20116;-71
2023/01/16 02:22:36;;;;;;;12.63;4.82;;;3.90;99.90;;;;;;5001379;28;20077;-68
2023/01/16 02:25:21;;;;;;;10.70;4.35;;;3.80;99.90;;;;;;4992046;28;20069;-70
2023/01/16 02:28:00;;;;;;;14.43;5.13;;;3.70;99.90;;;;;;4993139;28;20070;-69
2023/01/16 02:30:44;;;;;;;12.05;4.78;;;3.80;99.90;;;;;;5007944;28;20045;-71
2023/01/16 02:33:37;;;;;;;13.18;4.45;;;3.60;99.90;;;;;;5013753;28;20046;-70
2023/01/16 02:36:17;;;;;;;11.00;4.87;;;3.80;99.90;;;;;;4988524;28;20038;-70
2023/01/16 02:38:57;;;;;;;16.15;4.70;;;3.60;99.90;;;;;;5014828;28;20289;-71
2023/01/16 02:45:29;;;;;;;12.52;4.72;;;3.50;99.90;;;;;;4995324;28;20037;-71
2023/01/16 02:48:06;;;;;;;15.38;5.25;;;3.40;99.90;;;;;;4985540;28;20057;-70
2023/01/16 02:50:52;;;;;;;15.93;5.65;;;3.50;99.90;;;;;;5006041;28;20444;-71
2023/01/16 02:53:42;;;;;;;16.02;5.35;;;3.50;99.90;;;;;;4997169;28;20566;-72
2023/01/16 02:56:12;;;;;;;12.55;5.88;;;3.40;99.90;;;;;;5011668;28;20053;-71
2023/01/16 02:58:47;;;;;;;14.98;5.68;;;3.60;99.90;;;;;;5013106;28;20440;-69
2023/01/16 03:01:13;;;;;;;14.80;5.80;;;3.50;99.90;;;;;;4996765;28;20416;-71
2023/01/16 03:03:50;;;;;;;18.90;6.20;;;3.60;99.90;;;;;;4984039;28;20041;-71
2023/01/16 03:06:48;;;;;;;12.73;5.95;;;3.60;99.90;;;;;;4995302;28;20049;-71
2023/01/16 03:09:17;;;;;;;14.65;6.60;;;3.80;99.90;;;;;;4995497;28;20053;-71
2023/01/16 03:12:17;;;;;;;13.85;6.28;;;3.90;99.90;;;;;;4996647;28;20050;-71
2023/01/16 03:15:03;;;;;;;18.90;6.72;;;3.90;99.90;;;;;;4996697;28;20054;-71
2023/01/16 03:17:41;;;;;;;13.77;6.60;;;4.10;99.90;;;;;;4993643;28;20397;-71
2023/01/16 03:20:25;;;;;;;17.75;6.90;;;3.90;99.90;;;;;;4995336;28;20044;-70
2023/01/16 03:23:04;;;;;;;15.40;6.47;;;4.10;99.90;;;;;;5012875;28;20096;-71
2023/01/16 03:25:56;;;;;;;22.10;6.97;;;4.20;99.90;;;;;;5012912;28;20042;-71
2023/01/16 03:28:40;;;;;;;15.43;7.25;;;4.10;99.90;;;;;;5009857;28;20045;-71
2023/01/16 03:31:25;;;;;;;17.73;7.53;;;4.00;99.90;;;;;;5013871;28;20080;-71
2023/01/16 03:34:02;;;;;;;16.90;7.25;;;4.00;99.90;;;;;;5012869;28;20564;-70
2023/01/16 03:36:54;;;;;;;18.33;7.72;;;4.00;99.90;;;;;;4995761;28;20042;-71
2023/01/16 03:39:24;;;;;;;18.42;7.57;;;4.30;99.90;;;;;;4993376;28;20378;-71
2023/01/16 03:41:53;;;;;;;16.90;8.02;;;4.30;99.90;;;;;;4998999;28;20109;-71
2023/01/16 03:44:28;;;;;;;21.10;8.80;;;4.30;99.90;;;;;;5001912;28;20046;-71
2023/01/16 03:46:55;;;;;;;23.63;7.97;;;4.20;99.90;;;;;;4998239;28;20404;-72
2023/01/16 03:49:27;;;;;;;23.77;8.57;;;4.30;99.90;;;;;;4996025;28;20046;-71
2023/01/16 03:51:58;;;;;;;20.10;8.77;;;4.40;99.90;;;;;;4995580;28;20400;-71
2023/01/16 03:54:52;;;;;;;21.80;8.95;;;4.20;99.90;;;;;;5010819;28;20042;-70
2023/01/16 03:57:26;;;;;;;22.08;9.13;;;4.40;99.90;;;;;;5005686;28;20045;-70
2023/01/16 03:59:52;;;;;;;23.10;9.57;;;4.20;99.90;;;;;;4995638;28;20034;-71
2023/01/16 04:02:18;;;;;;;26.65;9.45;;;4.40;99.90;;;;;;4987555;28;20038;-71
2023/01/16 04:05:00;;;;;;;21.77;9.95;;;4.40;99.90;;;;;;5003754;28;20045;-69
2023/01/16 04:07:38;;;;;;;27.15;10.98;;;4.30;99.90;;;;;;4994733;28;20041;-70
2023/01/16 04:10:08;;;;;;;28.23;11.95;;;4.50;99.90;;;;;;4994237;28;20124;-72
2023/01/16 04:12:37;;;;;;;31.25;12.32;;;4.30;99.90;;;;;;4998881;28;20046;-70
2023/01/16 04:15:06;;;;;;;32.13;13.57;;;4.30;99.90;;;;;;4995392;28;20053;-70
2023/01/16 04:17:32;;;;;;;33.50;12.75;;;4.40;99.90;;;;;;4995231;28;20496;-71
2023/01/16 04:19:58;;;;;;;37.65;14.40;;;4.40;99.90;;;;;;5000095;28;20080;-71
2023/01/16 04:22:26;;;;;;;38.75;15.02;;;4.30;99.90;;;;;;4997704;28;20509;-70
2023/01/16 04:24:55;;;;;;;35.70;14.95;;;4.30;99.90;;;;;;4993568;28;20030;-69
2023/01/16 04:27:21;;;;;;;41.50;14.50;;;4.40;99.90;;;;;;4995068;28;20050;-71
2023/01/16 04:29:47;;;;;;;42.28;15.50;;;4.40;99.90;;;;;;5004295;28;20049;-70
2023/01/16 04:32:13;;;;;;;45.40;17.35;;;4.40;99.90;;;;;;4995475;28;20037;-71
2023/01/16 04:34:39;;;;;;;40.60;15.68;;;4.50;99.90;;;;;;4982807;28;20034;-70
2023/01/16 04:37:05;;;;;;;42.22;15.93;;;4.50;99.90;;;;;;5005292;28;20096;-71
2023/01/16 04:39:30;;;;;;;40.65;15.80;;;4.40;99.90;;;;;;5006286;28;20041;-71
2023/01/16 04:41:56;;;;;;;43.40;15.50;;;4.50;99.90;;;;;;5007503;28;20096;-70
2023/01/16 04:44:22;;;;;;;43.00;16.40;;;4.30;99.90;;;;;;5003028;28;20038;-69
2023/01/16 04:46:47;;;;;;;43.67;15.38;;;4.30;99.90;;;;;;4999305;28;20049;-70
2023/01/16 04:49:13;;;;;;;37.38;14.68;;;4.30;99.90;;;;;;5004034;28;20042;-70
2023/01/16 04:51:39;;;;;;;36.20;14.50;;;4.30;99.90;;;;;;5011612;28;20038;-70
2023/01/16 04:54:06;;;;;;;39.00;14.75;;;4.00;99.90;;;;;;5004467;28;20049;-69
2023/01/16 04:56:33;;;;;;;38.70;14.90;;;3.90;99.90;;;;;;4996689;28;20044;-70
2023/01/16 04:58:58;;;;;;;38.03;14.90;;;4.00;99.90;;;;;;5010189;28;20512;-71
2023/01/16 05:01:25;;;;;;;33.90;14.07;;;3.80;99.90;;;;;;4995996;28;20069;-70
2023/01/16 05:03:50;;;;;;;34.83;13.65;;;3.80;99.90;;;;;;4992858;28;20095;-70
2023/01/16 05:06:16;;;;;;;36.97;13.93;;;3.60;99.90;;;;;;4992781;28;20627;-69
2023/01/16 05:08:42;;;;;;;37.42;13.00;;;3.50;99.90;;;;;;5004200;28;20038;-69
2023/01/16 05:11:08;;;;;;;38.88;13.40;;;3.60;99.90;;;;;;5014427;28;20039;-69
2023/01/16 05:13:34;;;;;;;32.00;12.85;;;3.50;99.90;;;;;;4997364;28;20139;-71
2023/01/16 05:16:00;;;;;;;30.77;12.93;;;3.50;99.90;;;;;;4997456;28;20582;-70
2023/01/16 05:18:26;;;;;;;33.00;12.27;;;3.20;99.90;;;;;;4991242;28;20486;-69
2023/01/16 05:20:51;;;;;;;35.15;12.20;;;3.40;99.90;;;;;;4994433;28;20509;-69
2023/01/16 05:23:17;;;;;;;28.77;11.95;;;3.20;99.90;;;;;;4993620;28;20037;-69
2023/01/16 05:25:43;;;;;;;33.47;12.55;;;3.20;99.90;;;;;;5006065;28;20038;-70
2023/01/16 05:28:09;;;;;;;33.55;11.85;;;3.20;99.90;;;;;;4992933;28;20401;-71
2023/01/16 05:30:35;;;;;;;28.02;10.95;;;3.20;99.90;;;;;;4994635;28;20042;-69
2023/01/16 05:33:02;;;;;;;26.95;10.20;;;3.10;99.90;;;;;;5007171;28;20485;-69
2023/01/16 05:35:27;;;;;;;28.90;9.98;;;3.30;99.90;;;;;;4993500;28;20117;-69
2023/01/16 05:37:53;;;;;;;25.98;9.13;;;3.30;99.90;;;;;;4991797;28;20133;-71
2023/01/16 05:40:19;;;;;;;27.83;9.38;;;3.50;99.90;;;;;;5007976;28;20038;-70
2023/01/16 05:42:47;;;;;;;26.65;9.68;;;3.40;99.90;;;;;;4997375;28;20046;-70
2023/01/16 05:45:13;;;;;;;25.60;8.80;;;3.30;99.90;;;;;;5011272;28;20515;-70
2023/01/16 05:47:38;;;;;;;23.10;8.68;;;3.30;99.90;;;;;;4998147;28;20038;-70
2023/01/16 05:50:04;;;;;;;24.60;8.20;;;3.40;99.90;;;;;;4998027;28;20037;-70
2023/01/16 05:52:30;;;;;;;21.25;7.93;;;3.30;99.90;;;;;;5013944;28;20129;-70
2023/01/16 05:54:56;;;;;;;21.55;7.80;;;3.30;99.90;;;;;;5014528;28;20042;-70
2023/01/16 05:57:22;;;;;;;27.02;7.78;;;3.30;99.90;;;;;;5014099;28;20492;-70
2023/01/16 05:59:52;;;;;;;22.70;7.55;;;3.20;99.90;;;;;;5014306;28;20550;-70
2023/01/16 06:02:19;;;;;;;20.70;7.88;;;3.20;99.90;;;;;;4998492;28;20077;-70
2023/01/16 06:04:45;;;;;;;20.55;8.02;;;3.20;99.90;;;;;;4993012;28;20077;-71
2023/01/16 06:07:11;;;;;;;20.85;7.82;;;3.20;99.90;;;;;;4997399;28;20072;-70
2023/01/16 06:09:40;;;;;;;23.20;7.53;;;3.10;99.90;;;;;;5010756;28;20483;-70
2023/01/16 06:12:07;;;;;;;18.02;7.18;;;3.20;99.90;;;;;;5008057;28;20099;-69
2023/01/16 06:14:33;;;;;;;20.40;7.32;;;3.20;99.90;;;;;;5015199;28;20077;-70
2023/01/16 06:16:59;;;;;;;21.50;7.50;;;3.10;99.90;;;;;;4998558;28;20050;-70
2023/01/16 06:19:24;;;;;;;17.55;7.00;;;3.10;99.90;;;;;;5013950;28;20389;-70
2023/01/16 06:21:50;;;;;;;22.55;7.30;;;3.10;99.90;;;;;;5004001;28;20045;-71
2023/01/16 06:24:16;;;;;;;21.88;6.72;;;3.10;99.90;;;;;;4997279;28;20451;-71
2023/01/16 06:26:41;;;;;;;20.10;6.80;;;3.20;99.90;;;;;;5014775;28;20042;-71
2023/01/16 06:29:09;;;;;;;17.95;6.30;;;3.10;99.90;;;;;;5005293;28;20077;-70
2023/01/16 06:31:35;;;;;;;16.02;5.63;;;3.10;99.90;;;;;;4997016;28;20046;-70
2023/01/16 06:34:00;;;;;;;15.93;5.60;;;3.00;99.90;;;;;;4994469;28;20037;-70
2023/01/16 06:36:26;;;;;;;16.48;5.72;;;3.00;99.90;;;;;;4993158;28;20050;-70
2023/01/16 06:38:52;;;;;;;19.10;5.75;;;3.20;99.90;;;;;;5000192;28;20408;-70
2023/01/16 06:41:17;;;;;;;14.77;5.30;;;3.20;99.90;;;;;;4995603;28;20042;-70
2023/01/16 06:43:43;;;;;;;18.02;4.72;;;3.10;99.90;;;;;;4994199;28;20101;-69
2023/01/16 06:46:08;;;;;;;13.35;5.32;;;3.10;99.90;;;;;;4995089;28;20038;-70
2023/01/16 06:48:58;;;;;;;18.90;5.55;;;3.00;99.90;;;;;;5011494;28;20080;-70
2023/01/16 06:51:23;;;;;;;13.82;4.80;;;3.00;99.90;;;;;;4999983;28;20290;-70
2023/01/16 06:53:49;;;;;;;19.75;5.47;;;3.00;99.90;;;;;;4989873;28;20381;-70
2023/01/16 06:56:15;;;;;;;21.05;5.03;;;3.10;99.90;;;;;;4990865;28;20041;-70
2023/01/16 06:58:40;;;;;;;20.25;5.25;;;3.10;99.90;;;;;;4996064;28;20117;-70
2023/01/16 07:01:06;;;;;;;15.32;4.90;;;3.10;99.90;;;;;;4987655;28;20034;-70
2023/01/16 07:03:32;;;;;;;13.10;4.95;;;3.10;99.90;;;;;;5005405;28;20037;-69
2023/01/16 07:05:58;;;;;;;15.35;5.55;;;3.00;99.90;;;;;;5006643;28;20033;-70
2023/01/16 07:08:24;;;;;;;16.30;4.93;;;3.10;99.90;;;;;;4988312;28;20508;-69
2023/01/16 07:10:49;;;;;;;16.33;5.30;;;3.00;99.90;;;;;;4991135;28;20092;-69
2023/01/16 07:13:16;;;;;;;16.98;4.45;;;3.00;99.90;;;;;;4986547;28;20038;-69
2023/01/16 07:24:05;;;;;;;14.82;4.88;;;3.30;99.90;;;;;;5010153;28;20092;-70
2023/01/16 07:26:33;;;;;;;18.65;4.72;;;3.20;99.90;;;;;;4988614;28;20108;-70
2023/01/16 07:28:59;;;;;;;15.32;5.28;;;3.20;99.90;;;;;;4987314;28;20477;-70
2023/01/16 07:31:25;;;;;;;13.52;4.93;;;3.30;99.90;;;;;;4987009;28;20428;-68
2023/01/16 07:33:51;;;;;;;16.23;5.43;;;3.40;99.90;;;;;;4986748;28;20060;-68
2023/01/16 07:36:17;;;;;;;18.25;5.90;;;3.40;99.90;;;;;;4990607;28;20524;-69
2023/01/16 07:38:42;;;;;;;17.10;6.00;;;3.20;99.90;;;;;;4987727;28;20037;-69
2023/01/16 07:41:08;;;;;;;17.88;5.93;;;3.40;99.90;;;;;;5000884;28;20034;-68
2023/01/16 07:43:34;;;;;;;19.10;6.47;;;3.40;99.90;;;;;;4991999;28;20033;-68
2023/01/16 07:46:00;;;;;;;15.50;6.13;;;3.30;99.90;;;;;;4992210;28;20498;-68
2023/01/16 07:48:26;;;;;;;18.05;5.82;;;3.40;99.90;;;;;;4992147;28;20092;-68
2023/01/16 07:50:59;;;;;;;16.17;5.72;;;3.50;99.90;;;;;;4986415;28;20412;-69
2023/01/16 07:53:28;;;;;;;22.90;6.28;;;3.50;99.90;;;;;;4992236;28;20073;-68
2023/01/16 07:55:59;;;;;;;17.40;6.68;;;3.30;99.90;;;;;;5008646;28;20366;-67
2023/01/16 07:58:25;;;;;;;18.65;6.68;;;3.50;99.90;;;;;;4994422;28;20057;-70
2023/01/16 08:00:55;;;;;;;22.40;7.07;;;3.40;99.90;;;;;;4988803;28;20048;-70
2023/01/16 08:03:22;;;;;;;18.92;6.90;;;3.60;99.90;;;;;;4989042;28;20070;-70
2023/01/16 08:05:49;;;;;;;19.70;6.97;;;3.50;99.90;;;;;;4986013;28;20038;-70
2023/01/16 08:08:16;;;;;;;15.65;7.70;;;3.50;99.90;;;;;;4984909;28;20882;-70
2023/01/16 08:10:41;;;;;;;20.48;7.18;;;3.70;99.90;;;;;;4987089;28;20107;-71
2023/01/16 08:13:07;;;;;;;19.85;7.35;;;3.70;99.90;;;;;;4983334;28;20042;-70
2023/01/16 08:15:33;;;;;;;23.50;8.18;;;3.70;99.90;;;;;;4990867;28;20504;-71
2023/01/16 08:17:58;;;;;;;19.05;7.85;;;3.80;99.90;;;;;;4996019;28;20033;-70
2023/01/16 08:20:27;;;;;;;18.77;7.80;;;3.80;99.90;;;;;;4982800;28;20508;-69
2023/01/16 08:22:53;;;;;;;16.13;7.88;;;3.90;99.90;;;;;;5006292;28;20030;-70
2023/01/16 08:25:20;;;;;;;21.77;8.60;;;3.80;99.90;;;;;;4988566;28;20103;-69
2023/01/16 08:27:46;;;;;;;17.35;8.18;;;3.90;99.90;;;;;;4989837;28;20512;-70
2023/01/16 08:30:13;;;;;;;19.35;8.65;;;3.80;99.90;;;;;;4989758;28;20096;-69
2023/01/16 08:32:39;;;;;;;16.23;8.02;;;3.90;99.90;;;;;;4987198;28;20065;-72
2023/01/16 08:35:05;;;;;;;18.20;8.18;;;4.00;99.90;;;;;;4990292;28;20441;-71
2023/01/16 08:37:31;;;;;;;21.15;8.55;;;3.90;99.90;;;;;;5006554;28;20477;-71
2023/01/16 08:39:57;;;;;;;21.95;8.20;;;4.10;99.90;;;;;;4991799;28;20053;-72
2023/01/16 08:53:32;;;;;;;15.55;7.00;;;4.00;99.90;;;;;;4990963;28;20112;-74
2023/01/16 08:55:57;;;;;;;16.02;6.78;;;4.10;99.90;;;;;;4987689;28;20591;-73
2023/01/16 08:58:23;;;;;;;16.17;6.85;;;4.10;99.90;;;;;;4989572;28;20034;-74
2023/01/16 09:00:51;;;;;;;17.17;5.82;;;4.00;99.90;;;;;;4986361;28;20128;-75
2023/01/16 09:03:17;;;;;;;10.85;5.30;;;4.10;99.90;;;;;;4989229;28;20497;-72
2023/01/16 09:05:43;;;;;;;13.52;5.70;;;4.10;99.90;;;;;;4988087;28;20049;-73
2023/01/16 09:08:10;;;;;;;14.32;5.65;;;4.10;99.90;;;;;;4987285;28;20151;-73
2023/01/16 09:10:35;;;;;;;11.95;5.55;;;4.20;99.90;;;;;;4988835;28;20034;-74
2023/01/16 09:15:45;;;;;;;18.10;5.38;;;4.10;99.90;;;;;;4989011;28;20052;-73
2023/01/16 09:18:11;;;;;;;12.32;4.95;;;4.20;99.90;;;;;;4993884;28;20038;-71
2023/01/16 09:20:37;;;;;;;12.45;4.70;;;4.30;99.90;;;;;;5012679;28;20117;-71
2023/01/16 09:23:03;;;;;;;13.65;4.57;;;4.20;99.90;;;;;;4996098;28;20105;-74
2023/01/16 09:25:31;;;;;;;13.32;4.60;;;4.30;99.90;;;;;;4995087;28;20049;-71
2023/01/16 09:27:57;;;;;;;12.80;4.43;;;4.10;99.90;;;;;;4997564;28;20088;-70
2023/01/16 09:30:25;;;;;;;7.85;3.65;;;4.20;99.90;;;;;;4992897;28;20426;-70
2023/01/16 09:32:50;;;;;;;9.18;4.43;;;4.20;99.90;;;;;;5003533;28;20072;-69
2023/01/16 09:35:16;;;;;;;10.00;3.78;;;4.20;99.90;;;;;;4995072;28;20042;-69
2023/01/16 09:37:45;;;;;;;10.52;4.35;;;4.30;99.90;;;;;;4997222;28;20049;-69
2023/01/16 09:40:14;;;;;;;8.68;4.10;;;4.30;99.90;;;;;;5000069;28;20037;-71
2023/01/16 09:49:59;;;;;;;10.15;3.72;;;4.40;99.90;;;;;;5015093;28;20056;-66
2023/01/16 09:59:20;;;;;;;9.63;3.63;;;4.30;99.90;;;;;;4997830;28;20053;-66
2023/01/16 10:01:52;;;;;;;9.85;3.40;;;4.30;99.90;;;;;;4996547;28;20034;-69
2023/01/16 10:04:50;;;;;;;11.07;3.25;;;4.30;99.90;;;;;;5014190;28;20408;-69
2023/01/16 10:11:13;;;;;;;8.40;3.55;;;4.30;99.90;;;;;;4985603;28;20046;-69
2023/01/16 10:21:51;;;;;;;8.98;3.67;;;4.20;99.90;;;;;;5015294;28;20061;-68
2023/01/16 10:27:51;;;;;;;6.90;3.53;;;4.20;99.90;;;;;;5013889;28;20045;-71
2023/01/16 10:30:21;;;;;;;6.60;3.15;;;4.10;99.90;;;;;;5012852;28;20046;-66
2023/01/16 10:32:55;;;;;;;9.55;3.20;;;4.10;99.90;;;;;;5013795;28;20057;-72
2023/01/16 10:35:31;;;;;;;7.30;3.35;;;4.10;99.90;;;;;;4998309;28;20042;-68
2023/01/16 10:38:15;;;;;;;10.65;3.55;;;4.10;99.90;;;;;;4992750;28;20130;-69
2023/01/16 10:40:41;;;;;;;9.65;3.35;;;4.10;99.90;;;;;;4997276;28;20077;-71
2023/01/16 10:51:40;;;;;;;8.05;3.90;;;4.20;99.90;;;;;;4996335;28;20041;-69
2023/01/16 10:57:54;;;;;;;7.00;3.45;;;4.10;99.90;;;;;;5014072;28;20133;-68
2023/01/16 11:04:05;;;;;;;7.85;4.18;;;4.10;99.90;;;;;;5024972;28;20040;-68
2023/01/16 11:06:31;;;;;;;10.60;4.47;;;4.10;99.90;;;;;;5026703;28;20065;-70
2023/01/16 11:09:06;;;;;;;8.48;4.15;;;4.20;99.90;;;;;;4998189;28;20096;-69
2023/01/16 11:20:27;;;;;;;8.98;4.68;;;4.10;99.90;;;;;;5002760;28;20051;-69
2023/01/16 11:23:03;;;;;;;11.10;4.40;;;4.20;99.90;;;;;;5000037;28;20393;-68
2023/01/16 11:25:37;;;;;;;10.45;5.07;;;4.20;99.90;;;;;;5001801;28;20503;-71
2023/01/16 11:28:07;;;;;;;14.07;5.25;;;4.20;99.90;;;;;;4982601;28;20468;-70
2023/01/16 11:30:38;;;;;;;13.27;5.22;;;4.30;99.90;;;;;;4992937;28;20042;-70
2023/01/16 11:33:14;;;;;;;12.18;5.05;;;4.20;99.90;;;;;;4977277;28;20045;-69
2023/01/16 11:35:51;;;;;;;11.43;5.50;;;4.20;99.90;;;;;;5004089;28;20045;-70
2023/01/16 11:38:17;;;;;;;8.38;4.80;;;4.30;99.90;;;;;;4976652;28;20038;-69
2023/01/16 11:40:52;;;;;;;10.48;5.25;;;4.20;99.90;;;;;;5009661;28;20038;-71
2023/01/16 11:46:25;;;;;;;9.48;4.70;;;4.20;99.90;;;;;;4993364;28;20107;-67
2023/01/16 11:48:57;;;;;;;7.70;4.40;;;4.30;99.90;;;;;;4982331;28;20037;-70
2023/01/16 11:51:48;;;;;;;12.07;4.70;;;4.40;99.90;;;;;;4992324;28;20073;-69
2023/01/16 11:54:24;;;;;;;9.98;4.63;;;4.50;99.90;;;;;;4994558;28;20049;-69
2023/01/16 12:00:51;;;;;;;10.88;4.68;;;4.40;99.90;;;;;;5013710;28;20084;-69
2023/01/16 12:03:42;;;;;;;8.80;4.82;;;4.50;99.90;;;;;;4996027;28;20125;-68
2023/01/16 12:06:17;;;;;;;9.68;5.20;;;4.50;99.90;;;;;;4995818;28;20432;-68
2023/01/16 12:09:04;;;;;;;15.20;4.72;;;4.60;99.90;;;;;;5008062;28;20042;-69
2023/01/16 12:11:36;;;;;;;10.23;5.18;;;4.50;99.90;;;;;;4990490;28;20167;-67
2023/01/16 12:14:21;;;;;;;11.50;4.95;;;4.60;99.90;;;;;;4995457;28;20034;-68
2023/01/16 12:17:13;;;;;;;7.82;4.47;;;4.60;99.90;;;;;;4995190;28;20046;-67
2023/01/16 12:19:56;;;;;;;12.95;5.00;;;4.70;99.90;;;;;;4996073;28;20543;-69
2023/01/16 12:26:31;;;;;;;10.63;4.93;;;4.80;99.90;;;;;;5013403;28;20031;-68
2023/01/16 12:29:29;;;;;;;10.70;5.40;;;4.70;99.90;;;;;;4995724;28;20446;-70
2023/01/16 12:32:04;;;;;;;13.02;5.35;;;4.80;99.90;;;;;;4995677;28;20038;-67
2023/01/16 12:34:58;;;;;;;9.00;4.97;;;4.80;99.90;;;;;;4995771;28;20080;-67
2023/01/16 12:37:50;;;;;;;13.40;5.32;;;4.80;99.90;;;;;;4973081;28;20499;-69
2023/01/16 12:40:38;;;;;;;16.45;5.85;;;4.90;99.90;;;;;;5019747;28;20045;-68
2023/01/16 12:43:40;;;;;;;11.13;5.75;;;4.90;99.90;;;;;;5015423;28;20046;-69
2023/01/16 12:46:18;;;;;;;14.35;5.35;;;4.90;99.90;;;;;;5015262;28;20033;-68
2023/01/16 12:49:07;;;;;;;14.02;5.63;;;4.80;99.90;;;;;;4996407;28;20054;-69
2023/01/16 12:51:45;;;;;;;15.35;5.93;;;4.90;99.90;;;;;;5030599;28;20037;-70
2023/01/16 12:55:03;;;;;;;14.27;5.65;;;4.90;99.90;;;;;;5010694;28;20069;-68
2023/01/16 12:57:40;;;;;;;13.00;5.50;;;4.70;99.90;;;;;;4999202;28;20038;-68
2023/01/16 13:00:09;;;;;;;11.65;5.90;;;4.80;99.90;;;;;;5013868;28;20481;-69
2023/01/16 13:02:44;;;;;;;17.25;6.88;;;4.90;99.90;;;;;;4995832;28;20034;-69
2023/01/16 13:05:18;;;;;;;10.55;6.43;;;4.80;99.90;;;;;;4995845;28;20062;-68
2023/01/16 13:08:06;;;;;;;11.90;5.90;;;4.80;99.90;;;;;;4998731;28;20153;-68
2023/01/16 13:13:33;;;;;;;12.00;5.18;;;5.00;99.90;;;;;;4998467;28;20404;-67
2023/01/16 13:15:59;;;;;;;10.60;5.70;;;4.90;99.90;;;;;;5016467;28;20048;-69
2023/01/16 13:18:45;;;;;;;11.80;6.85;;;4.90;99.90;;;;;;4998813;28;20132;-68
2023/01/16 13:21:16;;;;;;;8.55;5.38;;;5.00;99.90;;;;;;4979019;28;20108;-68
2023/01/16 13:27:38;;;;;;;12.88;5.53;;;5.10;99.90;;;;;;5016251;28;20491;-68
2023/01/16 13:30:12;;;;;;;12.55;5.15;;;5.10;99.90;;;;;;5015007;28;20151;-68
2023/01/16 13:32:43;;;;;;;9.98;5.00;;;5.00;99.90;;;;;;4998957;28;20527;-68
2023/01/16 13:35:25;;;;;;;10.40;4.90;;;5.20;99.90;;;;;;5014968;28;20400;-68
2023/01/16 13:38:06;;;;;;;8.75;4.45;;;5.10;99.90;;;;;;5013979;28;20091;-68
2023/01/16 13:47:57;;;;;;;8.60;4.65;;;5.20;99.90;;;;;;4996374;28;20496;-71
2023/01/16 13:50:35;;;;;;;10.75;4.88;;;5.10;99.90;;;;;;4997087;28;20050;-68
2023/01/16 13:53:06;;;;;;;10.07;4.60;;;5.10;99.90;;;;;;5014408;28;20046;-68
2023/01/16 13:55:40;;;;;;;11.77;4.95;;;5.20;99.90;;;;;;5014594;28;20046;-68
2023/01/16 14:01:47;;;;;;;6.53;4.15;;;5.20;99.90;;;;;;5015676;28;20036;-67
2023/01/16 14:11:59;;;;;;;14.38;4.28;;;5.20;99.90;;;;;;5012045;28;20053;-68
2023/01/16 14:20:52;;;;;;;7.80;3.90;;;5.10;99.90;;;;;;4995729;28;20112;-68
2023/01/16 14:26:24;;;;;;;8.93;4.03;;;5.10;99.90;;;;;;4978270;28;20100;-67
2023/01/16 14:28:56;;;;;;;7.28;3.63;;;5.20;99.90;;;;;;4978381;28;20046;-67
2023/01/16 14:31:26;;;;;;;8.80;3.95;;;5.10;99.90;;;;;;4978093;28;20069;-68
2023/01/16 14:33:54;;;;;;;8.25;4.15;;;5.20;99.90;;;;;;4978028;28;20114;-68
2023/01/16 14:36:23;;;;;;;8.98;3.97;;;5.10;99.90;;;;;;4978285;28;20097;-68
2023/01/16 14:38:51;;;;;;;9.55;4.13;;;5.00;99.90;;;;;;4986516;28;20072;-68
2023/01/16 14:56:30;;;;;;;8.40;3.90;;;5.20;99.90;;;;;;5014547;28;20088;-67
2023/01/16 15:02:49;;;;;;;10.57;3.85;;;5.20;99.90;;;;;;5014692;28;20073;-68
2023/01/16 15:05:25;;;;;;;10.30;4.20;;;5.00;99.90;;;;;;4996985;28;20046;-68
2023/01/16 15:11:45;;;;;;;9.23;3.20;;;5.10;99.90;;;;;;5013950;28;20075;-69
2023/01/16 15:23:36;;;;;;;8.00;3.53;;;5.10;99.90;;;;;;4993368;28;20174;-70
2023/01/16 15:26:10;;;;;;;6.50;3.58;;;5.20;99.90;;;;;;4986180;28;20094;-68
2023/01/16 15:29:02;;;;;;;8.77;3.90;;;5.00;99.90;;;;;;5012994;28;20235;-68
2023/01/16 15:31:35;;;;;;;7.82;3.80;;;5.00;99.90;;;;;;5012558;28;20046;-69
2023/01/16 15:34:04;;;;;;;5.55;3.47;;;5.00;99.90;;;;;;5012942;28;20154;-70
2023/01/16 15:36:37;;;;;;;9.45;4.05;;;5.10;99.90;;;;;;4996431;28;20516;-70
2023/01/16 15:39:18;;;;;;;8.15;3.72;;;5.00;99.90;;;;;;5012481;28;20041;-71
2023/01/16 15:48:48;;;;;;;6.57;3.88;;;5.10;99.90;;;;;;4996336;28;20104;-69
2023/01/16 15:51:17;;;;;;;11.45;3.50;;;5.00;99.90;;;;;;4995712;28;20046;-72
2023/01/16 15:53:48;;;;;;;4.90;3.10;;;5.00;99.90;;;;;;4993508;28;20057;-70
2023/01/16 15:56:31;;;;;;;5.38;3.40;;;4.90;99.90;;;;;;4995940;28;20062;-70
2023/01/16 15:58:56;;;;;;;5.47;3.15;;;5.10;99.90;;;;;;5010705;28;20504;-73
2023/01/16 16:01:28;;;;;;;8.48;3.30;;;5.00;99.90;;;;;;4994909;28;20048;-72
2023/01/16 16:03:55;;;;;;;6.82;3.20;;;5.00;99.90;;;;;;5026214;28;20061;-71
2023/01/16 16:06:21;;;;;;;6.13;3.22;;;5.00;99.90;;;;;;4993973;28;20046;-71
2023/01/16 16:12:11;;;;;;;6.15;3.30;;;4.90;99.90;;;;;;4995665;28;20049;-71